Time;durP1;ratioP1;P1;durP2;ratioP2;P2;SDS_P1;SDS_P2;PMS_P1;PMS_P2;Temp;Humidity;BMP_temperature;BMP_pressure;BME280_temperature;BME280_humidity;BME280_pressure;Samples;Min_cycle;Max_cycle;Signal;HPM_P1;HPM_P2
2021/09/01 00:01:45;;;;;;;5.30;2.88;;;21.60;52.70;;;;;;6250371;28;20041;-79
2021/09/01 00:04:45;;;;;;;4.13;2.53;;;21.50;52.90;;;;;;6249807;28;20038;-79
2021/09/01 00:07:47;;;;;;;5.45;2.88;;;21.50;53.10;;;;;;6262611;28;20093;-79
2021/09/01 00:10:49;;;;;;;3.83;2.42;;;21.50;53.20;;;;;;6255405;28;20037;-79
2021/09/01 00:13:50;;;;;;;7.72;2.90;;;21.40;53.30;;;;;;6234353;28;20045;-79
2021/09/01 00:16:51;;;;;;;4.50;2.75;;;21.40;53.90;;;;;;6250913;28;20458;-79
2021/09/01 00:19:52;;;;;;;4.65;2.67;;;21.30;53.30;;;;;;6249117;28;20037;-79
2021/09/01 00:22:54;;;;;;;5.57;2.90;;;21.30;53.40;;;;;;6249374;28;20025;-79
2021/09/01 00:25:55;;;;;;;5.38;2.47;;;21.30;53.60;;;;;;6248997;28;20084;-79
2021/09/01 00:28:56;;;;;;;3.72;2.17;;;21.30;54.30;;;;;;6250169;28;20034;-79
2021/09/01 00:31:57;;;;;;;3.75;2.55;;;21.20;53.90;;;;;;6248252;28;20117;-79
2021/09/01 00:34:58;;;;;;;10.35;3.10;;;21.20;54.00;;;;;;6250589;28;20026;-79
2021/09/01 00:37:59;;;;;;;7.97;3.38;;;21.20;54.10;;;;;;6251200;28;20025;-79
2021/09/01 00:41:00;;;;;;;5.03;2.80;;;21.10;54.20;;;;;;6250713;28;20516;-79
2021/09/01 00:44:20;;;;;;;3.90;2.42;;;21.10;54.30;;;;;;6248661;28;20030;-79
2021/09/01 00:47:24;;;;;;;7.45;2.78;;;21.00;54.40;;;;;;6249004;28;20056;-79
2021/09/01 00:50:26;;;;;;;4.30;2.60;;;21.00;54.50;;;;;;6247731;28;20040;-79
2021/09/01 00:53:29;;;;;;;7.18;2.80;;;21.00;54.50;;;;;;6233020;28;20034;-79
2021/09/01 00:56:29;;;;;;;5.88;3.08;;;21.00;54.50;;;;;;6255704;28;20040;-79
2021/09/01 00:59:35;;;;;;;9.82;2.63;;;21.00;54.60;;;;;;6256890;28;20029;-79
2021/09/01 01:02:36;;;;;;;6.13;2.80;;;20.90;54.70;;;;;;6252065;28;20033;-80
2021/09/01 01:05:36;;;;;;;8.43;3.10;;;20.90;54.90;;;;;;6249826;28;20087;-79
2021/09/01 01:08:37;;;;;;;6.82;3.17;;;20.80;55.50;;;;;;6249397;28;20121;-79
2021/09/01 01:12:08;;;;;;;6.78;2.85;;;20.80;55.10;;;;;;6233308;28;20462;-79
2021/09/01 01:15:09;;;;;;;4.03;2.60;;;20.70;55.30;;;;;;6227820;28;20087;-79
2021/09/01 01:18:10;;;;;;;4.57;2.78;;;20.70;55.30;;;;;;6230193;28;20041;-79
2021/09/01 01:21:15;;;;;;;5.20;2.92;;;20.60;55.40;;;;;;6257425;28;20036;-79
2021/09/01 01:24:16;;;;;;;6.30;3.03;;;20.60;55.50;;;;;;6270334;28;20044;-79
2021/09/01 01:27:34;;;;;;;4.13;2.50;;;20.60;55.40;;;;;;6271585;28;20497;-78
2021/09/01 01:30:36;;;;;;;8.25;2.97;;;20.60;55.50;;;;;;6259875;28;20052;-79
2021/09/01 01:33:37;;;;;;;6.20;3.10;;;20.60;55.50;;;;;;6228030;28;20046;-79
2021/09/01 01:36:38;;;;;;;4.75;3.05;;;20.60;55.50;;;;;;6218611;28;20098;-78
2021/09/01 01:39:38;;;;;;;5.93;3.08;;;20.60;55.50;;;;;;6245817;28;20091;-79
2021/09/01 01:42:41;;;;;;;7.88;3.05;;;20.60;55.60;;;;;;6245077;28;20144;-79
2021/09/01 01:45:44;;;;;;;10.23;2.75;;;20.60;55.50;;;;;;6226478;28;20040;-79
2021/09/01 01:48:45;;;;;;;6.10;3.00;;;20.60;55.60;;;;;;6244145;28;20124;-78
2021/09/01 01:51:50;;;;;;;8.50;2.92;;;20.60;55.60;;;;;;6244622;28;20439;-78
2021/09/01 01:54:51;;;;;;;5.65;2.88;;;20.60;55.70;;;;;;6201941;28;20052;-78
2021/09/01 01:57:52;;;;;;;4.95;2.55;;;20.60;55.60;;;;;;6221886;28;20034;-79
2021/09/01 02:00:53;;;;;;;7.05;2.65;;;20.60;55.60;;;;;;6231773;28;20041;-79
2021/09/01 02:03:54;;;;;;;3.83;2.70;;;20.60;55.60;;;;;;6242675;28;20045;-79
2021/09/01 02:06:55;;;;;;;4.97;2.83;;;20.60;55.70;;;;;;6216328;28;20041;-79
2021/09/01 02:09:56;;;;;;;12.27;3.45;;;20.50;55.70;;;;;;6268142;28;20123;-79
2021/09/01 02:12:57;;;;;;;7.10;3.28;;;20.50;55.80;;;;;;6265715;28;20047;-78
2021/09/01 02:15:58;;;;;;;5.60;3.17;;;20.50;55.80;;;;;;6226795;28;20041;-78
2021/09/01 02:18:59;;;;;;;7.68;3.20;;;20.50;56.00;;;;;;6239477;28;20032;-79
2021/09/01 02:22:00;;;;;;;5.50;3.13;;;20.40;56.10;;;;;;6243578;28;20371;-79
2021/09/01 02:25:01;;;;;;;7.50;3.15;;;20.40;56.10;;;;;;6245155;28;20041;-79
2021/09/01 02:28:02;;;;;;;7.40;3.15;;;20.40;56.20;;;;;;6244868;28;20366;-79
2021/09/01 02:31:03;;;;;;;9.00;3.17;;;20.40;56.40;;;;;;6227350;28;20042;-78
2021/09/01 02:34:04;;;;;;;4.13;2.55;;;20.30;56.50;;;;;;6240863;28;20037;-79
2021/09/01 02:37:05;;;;;;;5.50;3.60;;;20.30;56.50;;;;;;6243758;28;20033;-78
2021/09/01 02:40:06;;;;;;;5.90;3.40;;;20.30;56.60;;;;;;6226463;28;20037;-78
2021/09/01 02:43:09;;;;;;;6.22;2.95;;;20.20;56.60;;;;;;6241773;28;20120;-78
2021/09/01 02:46:09;;;;;;;4.75;2.88;;;20.20;56.60;;;;;;6247520;28;20044;-81
2021/09/01 02:49:11;;;;;;;4.35;2.72;;;20.20;56.60;;;;;;6243360;28;20041;-80
2021/09/01 02:52:12;;;;;;;5.65;2.60;;;20.20;56.70;;;;;;6227169;28;20048;-78
2021/09/01 02:55:13;;;;;;;4.60;2.30;;;20.20;56.60;;;;;;6247949;28;20053;-80
2021/09/01 02:58:15;;;;;;;6.72;2.67;;;20.20;56.60;;;;;;6231698;28;20095;-80
2021/09/01 03:01:16;;;;;;;3.65;2.10;;;20.00;56.50;;;;;;6244143;28;20049;-79
2021/09/01 03:04:17;;;;;;;7.47;2.75;;;20.10;56.60;;;;;;6227022;28;20053;-79
2021/09/01 03:07:18;;;;;;;5.50;2.90;;;20.10;56.60;;;;;;6249618;28;20068;-79
2021/09/01 03:10:19;;;;;;;4.20;2.33;;;20.10;56.70;;;;;;6269295;28;20045;-79
2021/09/01 03:13:21;;;;;;;8.38;3.00;;;20.00;56.80;;;;;;6261665;28;20072;-79
2021/09/01 03:16:21;;;;;;;5.93;2.72;;;20.00;56.80;;;;;;6244590;28;20042;-79
2021/09/01 03:19:23;;;;;;;7.22;2.78;;;20.00;57.00;;;;;;6244551;28;20065;-79
2021/09/01 03:22:24;;;;;;;5.00;2.70;;;19.90;57.10;;;;;;6211020;28;21114;-79
2021/09/01 03:25:25;;;;;;;4.82;2.50;;;19.90;57.10;;;;;;6243659;28;20059;-79
2021/09/01 03:28:25;;;;;;;6.13;3.00;;;19.90;57.30;;;;;;6243996;28;20099;-79
2021/09/01 03:31:26;;;;;;;6.82;3.10;;;19.80;57.20;;;;;;6250358;28;20049;-79
2021/09/01 03:34:27;;;;;;;6.07;2.75;;;19.80;57.30;;;;;;6248285;28;20474;-79
2021/09/01 03:38:03;;;;;;;5.30;2.88;;;19.80;57.40;;;;;;6247942;28;20434;-79
2021/09/01 03:41:03;;;;;;;4.63;2.85;;;19.80;57.40;;;;;;6229378;28;20458;-80
2021/09/01 03:44:04;;;;;;;3.90;2.58;;;19.80;57.30;;;;;;6243813;28;20041;-79
2021/09/01 03:47:06;;;;;;;6.03;2.72;;;19.80;57.90;;;;;;6245968;28;20029;-79
2021/09/01 03:50:09;;;;;;;4.38;2.38;;;19.80;57.20;;;;;;6245131;28;20064;-79
2021/09/01 03:53:13;;;;;;;4.80;2.88;;;19.80;57.20;;;;;;6229784;28;20408;-79
2021/09/01 03:56:14;;;;;;;4.10;2.75;;;19.80;57.30;;;;;;6246404;28;20037;-79
2021/09/01 03:59:36;;;;;;;5.03;2.88;;;19.70;57.40;;;;;;6230259;28;20047;-79
2021/09/01 04:02:37;;;;;;;5.70;2.83;;;19.70;57.40;;;;;;6246681;28;20034;-79
2021/09/01 04:05:38;;;;;;;6.60;3.10;;;19.70;57.40;;;;;;6247989;28;20040;-79
2021/09/01 04:08:39;;;;;;;8.20;3.35;;;19.70;57.50;;;;;;6248047;28;20041;-79
2021/09/01 04:11:40;;;;;;;4.68;2.95;;;19.60;57.50;;;;;;6247725;28;20042;-78
2021/09/01 04:14:41;;;;;;;5.40;3.00;;;19.60;57.60;;;;;;6243001;28;20538;-79
2021/09/01 04:17:42;;;;;;;7.03;3.15;;;19.60;57.70;;;;;;6247290;28;20042;-79
2021/09/01 04:20:43;;;;;;;3.88;2.58;;;19.50;57.60;;;;;;6230463;28;20439;-79
2021/09/01 04:23:44;;;;;;;6.05;3.25;;;19.60;57.70;;;;;;6248000;28;20374;-79
2021/09/01 04:26:45;;;;;;;5.88;3.20;;;19.60;57.70;;;;;;6248186;28;20084;-79
2021/09/01 04:29:46;;;;;;;4.68;3.08;;;19.50;57.70;;;;;;6248651;28;20046;-79
2021/09/01 04:32:47;;;;;;;6.07;3.45;;;19.50;57.80;;;;;;6247094;28;20121;-79
2021/09/01 04:35:48;;;;;;;5.93;3.13;;;19.50;57.90;;;;;;6231682;28;20068;-78
2021/09/01 04:38:49;;;;;;;5.15;3.00;;;19.50;57.90;;;;;;6230283;28;20367;-78
2021/09/01 04:41:50;;;;;;;6.55;3.38;;;19.50;58.00;;;;;;6243020;28;20045;-78
2021/09/01 04:44:51;;;;;;;9.02;3.70;;;19.40;58.10;;;;;;6247114;28;20049;-78
2021/09/01 04:47:52;;;;;;;9.48;3.85;;;19.40;58.10;;;;;;6247618;28;20038;-78
2021/09/01 04:50:53;;;;;;;10.43;3.30;;;19.40;58.20;;;;;;6249001;28;20111;-78
2021/09/01 04:53:54;;;;;;;7.60;3.58;;;19.40;58.20;;;;;;6245071;28;20045;-78
2021/09/01 04:56:55;;;;;;;8.30;3.92;;;19.40;58.20;;;;;;6235554;28;20057;-80
2021/09/01 04:59:56;;;;;;;6.18;3.28;;;19.40;58.30;;;;;;6257357;28;20076;-79
2021/09/01 05:02:57;;;;;;;6.78;3.50;;;19.40;58.30;;;;;;6245785;28;20037;-77
2021/09/01 05:05:58;;;;;;;5.15;2.85;;;19.40;58.40;;;;;;6268679;28;20037;-78
2021/09/01 05:09:03;;;;;;;5.90;2.80;;;19.40;58.40;;;;;;6254853;28;20033;-78
2021/09/01 05:12:04;;;;;;;6.53;3.13;;;19.40;58.50;;;;;;6254900;28;20037;-78
2021/09/01 05:15:06;;;;;;;7.25;2.88;;;19.30;58.50;;;;;;6273365;28;20044;-78
2021/09/01 05:18:07;;;;;;;5.72;3.20;;;19.30;58.50;;;;;;6244850;28;20034;-78
2021/09/01 05:21:12;;;;;;;8.02;3.13;;;19.30;58.60;;;;;;6205626;28;20068;-78
2021/09/01 05:24:45;;;;;;;8.15;2.80;;;19.30;58.60;;;;;;6229953;28;20041;-78
2021/09/01 05:27:50;;;;;;;5.95;2.78;;;19.20;58.60;;;;;;6246904;28;20034;-79
2021/09/01 05:30:52;;;;;;;4.15;2.47;;;19.20;58.60;;;;;;6229682;28;20167;-79
2021/09/01 05:33:54;;;;;;;3.78;2.50;;;19.20;58.70;;;;;;6247011;28;20056;-79
2021/09/01 05:36:55;;;;;;;5.03;2.90;;;19.10;58.60;;;;;;6243530;28;20090;-79
2021/09/01 05:39:59;;;;;;;7.03;3.60;;;19.10;58.70;;;;;;6239177;28;20047;-79
2021/09/01 05:43:00;;;;;;;6.20;3.40;;;19.20;58.90;;;;;;6224796;28;20041;-78
2021/09/01 05:46:02;;;;;;;12.05;3.40;;;19.20;58.90;;;;;;6234720;28;20042;-78
2021/09/01 05:49:03;;;;;;;9.82;3.40;;;19.10;58.90;;;;;;6238898;28;20061;-78
2021/09/01 05:52:06;;;;;;;8.80;3.30;;;19.10;58.90;;;;;;6206723;28;20029;-78
2021/09/01 05:55:10;;;;;;;10.45;3.67;;;19.10;59.10;;;;;;6247334;28;20052;-79
2021/09/01 05:58:13;;;;;;;7.78;3.83;;;19.10;59.20;;;;;;6244958;28;20095;-81
2021/09/01 06:01:16;;;;;;;10.95;3.47;;;19.10;59.40;;;;;;6230330;28;20045;-80
2021/09/01 06:04:19;;;;;;;17.77;3.78;;;19.10;59.30;;;;;;6239689;28;20041;-80
2021/09/01 06:07:23;;;;;;;6.40;3.15;;;19.10;59.30;;;;;;6244106;28;20030;-79
2021/09/01 06:10:30;;;;;;;6.72;3.40;;;19.20;59.30;;;;;;6222720;28;20113;-80
2021/09/01 06:13:31;;;;;;;8.27;3.65;;;19.20;59.30;;;;;;6228855;28;20077;-79
2021/09/01 06:16:32;;;;;;;9.35;4.38;;;19.30;59.20;;;;;;6241879;28;20358;-79
2021/09/01 06:19:34;;;;;;;8.70;4.00;;;20.80;59.80;;;;;;6205458;28;20080;-79
2021/09/01 06:22:35;;;;;;;7.60;3.60;;;19.40;59.00;;;;;;6220987;28;20354;-79
2021/09/01 06:25:36;;;;;;;8.05;4.03;;;19.40;58.90;;;;;;6220565;28;20037;-78
2021/09/01 06:28:38;;;;;;;7.50;3.92;;;19.40;58.90;;;;;;6244384;28;20125;-79
2021/09/01 06:31:39;;;;;;;15.93;3.55;;;19.50;58.80;;;;;;6246181;28;20366;-81
2021/09/01 06:34:40;;;;;;;13.55;3.95;;;19.50;58.70;;;;;;6246466;28;20104;-79
2021/09/01 06:37:42;;;;;;;6.43;3.03;;;19.60;58.70;;;;;;6205310;28;20444;-79
2021/09/01 06:40:43;;;;;;;8.68;3.78;;;19.60;58.60;;;;;;6254355;28;20038;-79
2021/09/01 06:43:44;;;;;;;6.72;3.47;;;19.70;58.50;;;;;;6222207;28;20041;-79
2021/09/01 06:46:45;;;;;;;11.35;4.15;;;19.80;58.30;;;;;;6245708;28;20049;-79
2021/09/01 06:49:46;;;;;;;6.40;3.75;;;19.80;58.10;;;;;;6246847;28;20087;-79
2021/09/01 06:52:48;;;;;;;14.75;4.40;;;19.90;58.10;;;;;;6244116;28;20084;-79
2021/09/01 06:55:49;;;;;;;15.18;4.13;;;19.90;58.00;;;;;;6246894;28;20057;-79
2021/09/01 06:58:50;;;;;;;7.70;3.60;;;20.00;57.70;;;;;;6247897;28;20097;-79
2021/09/01 07:01:51;;;;;;;10.32;4.32;;;20.00;57.60;;;;;;6245207;28;20041;-79
2021/09/01 07:04:52;;;;;;;13.82;3.28;;;20.10;57.50;;;;;;6246272;28;20041;-79
2021/09/01 07:07:53;;;;;;;8.93;4.15;;;20.10;57.30;;;;;;6244797;28;20454;-80
2021/09/01 07:10:54;;;;;;;9.80;3.80;;;20.20;57.20;;;;;;6246753;28;20064;-80
2021/09/01 07:13:55;;;;;;;8.95;3.45;;;20.20;57.00;;;;;;6245166;28;20048;-80
2021/09/01 07:16:56;;;;;;;12.20;4.30;;;20.30;56.90;;;;;;6243768;28;20033;-79
2021/09/01 07:19:57;;;;;;;10.15;3.08;;;20.40;56.70;;;;;;6244811;28;20034;-79
2021/09/01 07:22:58;;;;;;;9.95;3.80;;;20.60;56.50;;;;;;6245872;28;20033;-79
2021/09/01 07:25:59;;;;;;;6.47;3.22;;;20.60;56.20;;;;;;6245958;28;20034;-78
2021/09/01 07:29:00;;;;;;;8.77;3.17;;;20.70;56.00;;;;;;6244639;28;20045;-79
2021/09/01 07:32:01;;;;;;;12.32;3.22;;;20.80;55.80;;;;;;6226404;28;21654;-80
2021/09/01 07:35:03;;;;;;;12.50;2.58;;;21.00;55.50;;;;;;6239113;28;20101;-79
2021/09/01 07:38:04;;;;;;;7.35;2.70;;;21.00;55.10;;;;;;6243552;28;20045;-79
2021/09/01 07:41:06;;;;;;;5.70;2.50;;;21.10;55.00;;;;;;6228445;28;20434;-79
2021/09/01 07:44:07;;;;;;;13.15;2.90;;;21.20;54.80;;;;;;6224897;28;20052;-79
2021/09/01 07:47:09;;;;;;;5.68;3.00;;;21.30;54.60;;;;;;6244776;28;20026;-80
2021/09/01 07:50:10;;;;;;;5.97;2.97;;;21.40;54.90;;;;;;6244768;28;20370;-79
2021/09/01 07:57:42;;;;;;;11.48;3.22;;;21.60;53.90;;;;;;6271071;28;20033;-81
2021/09/01 08:00:42;;;;;;;6.45;3.03;;;21.60;53.70;;;;;;6254270;28;20040;-79
2021/09/01 08:03:43;;;;;;;6.10;2.90;;;21.70;53.70;;;;;;6253819;28;20056;-80
2021/09/01 08:06:44;;;;;;;6.75;2.97;;;21.80;53.50;;;;;;6246434;28;20041;-81
2021/09/01 08:09:45;;;;;;;6.97;2.50;;;22.00;53.30;;;;;;6229852;28;20030;-80
2021/09/01 08:12:47;;;;;;;5.18;3.05;;;22.10;52.70;;;;;;6230278;28;20052;-81
2021/09/01 08:15:48;;;;;;;5.15;2.90;;;22.20;52.40;;;;;;6250039;28;20025;-79
2021/09/01 08:18:49;;;;;;;7.90;4.38;;;22.30;52.50;;;;;;6251264;28;20041;-80
2021/09/01 08:21:50;;;;;;;6.15;2.72;;;22.40;51.70;;;;;;6234390;28;20062;-80
2021/09/01 08:24:51;;;;;;;7.00;2.80;;;22.50;51.60;;;;;;6249946;28;20041;-80
2021/09/01 08:27:52;;;;;;;5.18;2.85;;;22.60;51.50;;;;;;6249618;28;20056;-80
2021/09/01 08:30:53;;;;;;;5.85;2.40;;;22.70;50.90;;;;;;6250503;28;20470;-80
2021/09/01 08:33:54;;;;;;;5.50;2.85;;;22.80;50.70;;;;;;6250416;28;20096;-81
2021/09/01 08:36:56;;;;;;;9.90;2.75;;;22.90;50.60;;;;;;6234435;28;20030;-80
2021/09/01 08:39:57;;;;;;;7.95;3.45;;;23.00;50.60;;;;;;6250129;28;20037;-80
2021/09/01 08:42:58;;;;;;;7.18;3.00;;;23.10;50.20;;;;;;6233365;28;20486;-80
2021/09/01 08:46:02;;;;;;;4.88;2.42;;;23.20;50.20;;;;;;6250014;28;20076;-80
2021/09/01 08:49:03;;;;;;;7.68;4.30;;;23.40;50.00;;;;;;6234309;28;20128;-80
2021/09/01 08:52:04;;;;;;;6.15;2.78;;;23.50;49.60;;;;;;6249385;28;20034;-80
2021/09/01 08:55:07;;;;;;;11.00;3.20;;;23.50;49.40;;;;;;6233984;28;20103;-80
2021/09/01 08:58:08;;;;;;;9.82;5.55;;;23.50;49.30;;;;;;6257966;28;20068;-80
2021/09/01 09:01:41;;;;;;;28.70;7.93;;;23.60;49.30;;;;;;6259457;28;20073;-78
2021/09/01 09:04:42;;;;;;;14.57;6.85;;;23.70;49.30;;;;;;6245458;28;20455;-79
2021/09/01 09:07:54;;;;;;;12.77;3.35;;;23.80;49.10;;;;;;6246070;28;20049;-81
2021/09/01 09:10:54;;;;;;;8.75;3.08;;;23.90;48.90;;;;;;6247335;28;20045;-80
2021/09/01 09:13:55;;;;;;;4.22;2.70;;;24.00;48.70;;;;;;6228939;28;20037;-82
2021/09/01 09:17:08;;;;;;;8.23;3.97;;;24.10;48.20;;;;;;6229878;28;20524;-81
2021/09/01 09:20:10;;;;;;;7.68;3.70;;;24.20;48.00;;;;;;6244342;28;20021;-79
2021/09/01 09:23:10;;;;;;;8.13;3.83;;;24.20;47.70;;;;;;6245359;28;20041;-80
2021/09/01 09:26:28;;;;;;;6.50;2.80;;;24.30;47.50;;;;;;6227206;28;20037;-80
2021/09/01 09:29:32;;;;;;;6.78;2.55;;;24.30;47.70;;;;;;6243688;28;20443;-79
2021/09/01 09:32:36;;;;;;;7.68;2.88;;;24.40;47.30;;;;;;6242812;28;20195;-80
2021/09/01 09:35:58;;;;;;;6.15;3.10;;;24.50;47.00;;;;;;6244370;28;20041;-80
2021/09/01 09:38:59;;;;;;;10.35;5.20;;;24.50;46.70;;;;;;6243705;28;20398;-79
2021/09/01 09:42:01;;;;;;;6.28;3.13;;;24.70;46.40;;;;;;6237202;28;20049;-79
2021/09/01 09:45:25;;;;;;;8.57;4.22;;;24.70;45.70;;;;;;6225031;28;20043;-82
2021/09/01 09:48:31;;;;;;;13.60;5.10;;;24.70;45.90;;;;;;6223717;28;20308;-79
2021/09/01 09:51:43;;;;;;;9.88;2.85;;;24.80;45.70;;;;;;6227293;28;20411;-80
2021/09/01 09:54:45;;;;;;;6.82;3.45;;;24.90;45.30;;;;;;6236206;28;20104;-80
2021/09/01 09:57:54;;;;;;;5.95;3.53;;;24.90;45.10;;;;;;6244544;28;20041;-81
2021/09/01 10:00:55;;;;;;;8.40;3.67;;;24.90;45.20;;;;;;6245819;28;20052;-82
2021/09/01 10:03:56;;;;;;;7.35;3.17;;;25.00;45.00;;;;;;6244228;28;20041;-80
2021/09/01 10:06:58;;;;;;;8.50;3.15;;;25.10;44.50;;;;;;6220221;28;20087;-81
2021/09/01 10:09:59;;;;;;;5.38;3.10;;;25.10;44.50;;;;;;6246488;28;20055;-81
2021/09/01 10:13:01;;;;;;;14.02;5.57;;;25.10;44.60;;;;;;6243386;28;20034;-79
2021/09/01 10:16:13;;;;;;;7.72;2.60;;;25.30;44.50;;;;;;6229684;28;20570;-79
2021/09/01 10:19:18;;;;;;;11.70;5.45;;;25.40;44.40;;;;;;6227050;28;20037;-80
2021/09/01 10:22:19;;;;;;;20.60;7.25;;;25.40;44.30;;;;;;6235325;28;20045;-80
2021/09/01 10:25:45;;;;;;;7.82;3.53;;;25.50;44.30;;;;;;6220687;28;20072;-79
2021/09/01 10:28:46;;;;;;;12.90;4.47;;;25.50;44.50;;;;;;6247077;28;20139;-81
2021/09/01 10:31:47;;;;;;;6.35;3.20;;;25.50;44.30;;;;;;6227999;28;20053;-81
2021/09/01 10:34:49;;;;;;;9.02;4.15;;;25.50;44.30;;;;;;6249716;28;20041;-81
2021/09/01 10:37:53;;;;;;;4.88;3.00;;;25.60;44.50;;;;;;6244325;28;20041;-81
2021/09/01 10:41:03;;;;;;;4.05;2.35;;;25.80;44.20;;;;;;6242853;28;20133;-81
2021/09/01 10:44:13;;;;;;;4.35;2.53;;;26.10;43.20;;;;;;6231239;28;20039;-80
2021/09/01 10:47:14;;;;;;;6.07;3.50;;;26.40;42.60;;;;;;6226178;28;20025;-80
2021/09/01 10:50:29;;;;;;;7.78;2.75;;;26.90;41.80;;;;;;6266583;28;20037;-81
2021/09/01 10:53:36;;;;;;;9.20;3.63;;;27.30;41.00;;;;;;6246937;28;20047;-80
2021/09/01 10:56:50;;;;;;;12.35;4.35;;;27.80;40.00;;;;;;6246301;28;20030;-81
2021/09/01 10:59:52;;;;;;;4.22;2.88;;;28.10;39.30;;;;;;6244246;28;20037;-81
2021/09/01 11:02:53;;;;;;;6.10;2.53;;;28.30;39.20;;;;;;6242147;28;20038;-80
2021/09/01 11:05:54;;;;;;;8.75;4.78;;;28.60;38.80;;;;;;6243989;28;20034;-80
2021/09/01 11:09:03;;;;;;;2.45;2.00;;;29.00;38.40;;;;;;6211178;28;20103;-81
2021/09/01 11:12:04;;;;;;;4.53;2.17;;;29.30;37.40;;;;;;6241959;28;20112;-80
2021/09/01 11:15:05;;;;;;;17.88;6.93;;;29.50;37.20;;;;;;6243347;28;20099;-81
2021/09/01 11:18:08;;;;;;;9.25;3.30;;;29.70;37.00;;;;;;6219354;28;20029;-81
2021/09/01 11:21:09;;;;;;;5.63;2.85;;;29.90;36.50;;;;;;6242761;28;20045;-81
2021/09/01 11:24:12;;;;;;;8.40;3.80;;;30.20;36.30;;;;;;6243358;28;20121;-81
2021/09/01 11:27:14;;;;;;;4.00;2.88;;;30.40;35.60;;;;;;6244758;28;20095;-81
2021/09/01 11:30:16;;;;;;;8.75;4.93;;;30.50;35.30;;;;;;6240029;28;20045;-79
2021/09/01 11:33:17;;;;;;;6.90;3.95;;;30.60;35.30;;;;;;6250809;28;20030;-82
2021/09/01 11:36:18;;;;;;;3.35;2.40;;;30.80;35.20;;;;;;6242235;28;20045;-82
2021/09/01 11:39:19;;;;;;;3.80;2.88;;;31.10;34.90;;;;;;6243125;28;20045;-82
2021/09/01 11:42:20;;;;;;;4.43;3.05;;;31.30;34.50;;;;;;6242650;28;20112;-81
2021/09/01 11:45:22;;;;;;;4.03;2.33;;;31.60;34.10;;;;;;6242269;28;20038;-82
2021/09/01 11:48:23;;;;;;;3.30;2.35;;;31.80;33.80;;;;;;6245195;28;20029;-82
2021/09/01 11:51:24;;;;;;;5.85;2.78;;;31.90;33.60;;;;;;6247917;28;20048;-81
2021/09/01 11:54:25;;;;;;;6.63;2.45;;;32.00;33.50;;;;;;6248954;28;20124;-82
2021/09/01 11:57:31;;;;;;;3.55;2.15;;;32.20;33.30;;;;;;6233578;28;20057;-81
2021/09/01 12:00:38;;;;;;;4.10;2.58;;;32.50;32.80;;;;;;6249957;28;20105;-81
2021/09/01 12:03:39;;;;;;;3.30;2.15;;;32.80;32.30;;;;;;6222087;28;20040;-81
2021/09/01 12:06:43;;;;;;;5.20;2.10;;;33.10;31.80;;;;;;6249922;28;20029;-80
2021/09/01 12:09:44;;;;;;;3.47;2.15;;;33.50;31.30;;;;;;6232297;28;20049;-81
2021/09/01 12:12:45;;;;;;;6.72;1.95;;;33.80;30.80;;;;;;6232170;28;20041;-81
2021/09/01 12:15:57;;;;;;;4.78;2.38;;;34.00;30.20;;;;;;6232033;28;20040;-81
2021/09/01 12:19:07;;;;;;;4.40;2.20;;;34.40;30.00;;;;;;6248674;28;20029;-81
2021/09/01 12:22:08;;;;;;;3.55;1.83;;;34.90;29.10;;;;;;6217823;28;20049;-81
2021/09/01 12:25:12;;;;;;;4.63;1.98;;;35.30;28.30;;;;;;6231145;28;20041;-80
2021/09/01 12:28:17;;;;;;;4.68;1.98;;;35.80;27.70;;;;;;6232669;28;20049;-81
2021/09/01 12:31:22;;;;;;;4.03;1.90;;;36.30;27.20;;;;;;6248779;28;20041;-80
2021/09/01 12:34:29;;;;;;;3.50;1.95;;;37.00;26.50;;;;;;6248403;28;20030;-82
2021/09/01 12:37:34;;;;;;;5.87;2.13;;;37.50;25.80;;;;;;6226138;28;20132;-82
2021/09/01 12:40:38;;;;;;;7.15;2.40;;;37.80;25.40;;;;;;6249206;28;20268;-82
2021/09/01 12:43:40;;;;;;;3.00;2.17;;;38.00;25.10;;;;;;6250184;28;20033;-82
2021/09/01 12:46:41;;;;;;;3.22;2.25;;;38.40;24.60;;;;;;6266054;28;20446;-83
2021/09/01 12:49:45;;;;;;;3.78;2.15;;;38.60;24.60;;;;;;6242315;28;20049;-80
2021/09/01 12:52:46;;;;;;;4.70;2.05;;;38.80;24.50;;;;;;6224087;28;20068;-80
2021/09/01 12:55:49;;;;;;;4.15;1.80;;;39.30;24.00;;;;;;6222193;28;20038;-81
2021/09/01 12:58:50;;;;;;;4.22;1.92;;;39.50;23.50;;;;;;6225248;28;20041;-83
2021/09/01 13:01:51;;;;;;;2.83;1.60;;;39.70;23.40;;;;;;6207756;28;20112;-80
2021/09/01 13:04:52;;;;;;;3.75;1.75;;;40.10;23.30;;;;;;6223358;28;20034;-80
2021/09/01 13:07:53;;;;;;;5.45;2.10;;;40.50;23.00;;;;;;6223693;28;20124;-80
2021/09/01 13:10:54;;;;;;;4.38;1.98;;;40.70;23.10;;;;;;6224859;28;20041;-80
2021/09/01 13:13:55;;;;;;;7.88;1.98;;;41.00;23.00;;;;;;6225028;28;20033;-80
2021/09/01 13:16:56;;;;;;;3.17;1.80;;;41.50;22.70;;;;;;6208080;28;20188;-81
2021/09/01 13:19:57;;;;;;;6.32;1.83;;;42.00;22.30;;;;;;6223899;28;20065;-80
2021/09/01 13:22:59;;;;;;;4.80;1.98;;;42.20;22.00;;;;;;6232033;28;20061;-80
2021/09/01 13:26:00;;;;;;;6.63;1.90;;;42.50;21.70;;;;;;6248394;28;20037;-80
2021/09/01 13:29:02;;;;;;;2.05;1.80;;;42.80;21.30;;;;;;6247512;28;20049;-81
2021/09/01 13:32:04;;;;;;;6.25;1.80;;;43.10;21.00;;;;;;6248527;28;20045;-80
2021/09/01 13:35:05;;;;;;;7.30;1.70;;;43.50;20.90;;;;;;6246991;28;20163;-81
2021/09/01 13:38:07;;;;;;;3.55;2.05;;;43.60;20.80;;;;;;6254728;28;20044;-79
2021/09/01 13:41:08;;;;;;;3.33;2.42;;;43.90;20.50;;;;;;6256442;28;20033;-79
2021/09/01 13:44:09;;;;;;;3.78;2.53;;;44.00;20.40;;;;;;6247052;28;20037;-80
2021/09/01 13:47:11;;;;;;;5.63;2.15;;;44.20;20.70;;;;;;6272371;28;20339;-80
2021/09/01 13:50:12;;;;;;;2.55;1.70;;;44.30;19.90;;;;;;6256026;28;20044;-80
2021/09/01 13:53:13;;;;;;;2.05;1.50;;;44.20;19.60;;;;;;6259544;28;20331;-80
2021/09/01 13:56:14;;;;;;;2.75;1.70;;;44.20;19.70;;;;;;6248274;28;20401;-80
2021/09/01 13:59:16;;;;;;;1.73;1.60;;;44.00;19.60;;;;;;6231247;28;20064;-80
2021/09/01 14:02:18;;;;;;;2.05;1.63;;;43.90;19.60;;;;;;6246667;28;20120;-80
2021/09/01 14:05:19;;;;;;;2.45;1.70;;;43.50;19.90;;;;;;6248487;28;20365;-80
2021/09/01 14:08:20;;;;;;;2.53;1.90;;;42.30;20.70;;;;;;6248553;28;20052;-80
2021/09/01 14:11:21;;;;;;;3.25;1.75;;;41.00;21.50;;;;;;6248541;28;20087;-80
2021/09/01 14:14:22;;;;;;;2.50;1.80;;;39.60;22.70;;;;;;6247729;28;20033;-80
2021/09/01 14:17:23;;;;;;;3.00;2.05;;;38.40;23.80;;;;;;6248249;28;20481;-79
2021/09/01 14:20:24;;;;;;;5.22;2.05;;;37.30;24.70;;;;;;6247169;28;20049;-81
2021/09/01 14:23:25;;;;;;;4.30;1.75;;;36.30;25.60;;;;;;6230897;28;20124;-81
2021/09/01 14:26:26;;;;;;;5.20;1.88;;;35.50;26.60;;;;;;6249798;28;20034;-80
2021/09/01 14:29:27;;;;;;;2.63;2.00;;;34.70;27.40;;;;;;6249481;28;20068;-79
2021/09/01 14:32:28;;;;;;;6.35;2.03;;;34.00;28.40;;;;;;6251165;28;20099;-79
2021/09/01 14:35:28;;;;;;;5.13;2.17;;;33.50;28.40;;;;;;6249306;28;20048;-79
2021/09/01 14:38:29;;;;;;;3.72;2.40;;;33.10;28.80;;;;;;6255214;28;20497;-79
2021/09/01 14:41:31;;;;;;;5.40;1.95;;;32.80;29.30;;;;;;6273457;28;20104;-79
2021/09/01 14:44:32;;;;;;;3.65;1.90;;;32.40;29.80;;;;;;6255744;28;20037;-79
2021/09/01 14:47:33;;;;;;;6.72;2.22;;;32.20;30.30;;;;;;6272654;28;20178;-79
2021/09/01 14:50:34;;;;;;;3.28;2.03;;;31.90;30.60;;;;;;6253557;28;20045;-80
2021/09/01 14:53:36;;;;;;;2.28;2.03;;;31.70;30.90;;;;;;6245792;28;20140;-79
2021/09/01 14:56:37;;;;;;;2.55;1.80;;;31.50;31.40;;;;;;6248875;28;20061;-79
2021/09/01 14:59:38;;;;;;;3.97;2.30;;;31.40;31.70;;;;;;6231220;28;20037;-79
2021/09/01 15:02:40;;;;;;;1.90;1.65;;;31.30;32.00;;;;;;6246748;28;20045;-79
2021/09/01 15:05:41;;;;;;;3.45;1.98;;;31.20;32.30;;;;;;6247175;28;20379;-80
2021/09/01 15:08:43;;;;;;;9.20;2.72;;;31.10;32.50;;;;;;6246332;28;20047;-79
2021/09/01 15:11:44;;;;;;;3.35;2.28;;;31.00;32.70;;;;;;6247420;28;20045;-79
2021/09/01 15:14:45;;;;;;;3.88;2.40;;;30.90;32.90;;;;;;6248360;28;20057;-80
2021/09/01 15:17:46;;;;;;;4.55;2.05;;;30.80;33.70;;;;;;6230967;28;20116;-79
2021/09/01 15:20:47;;;;;;;5.00;2.00;;;30.80;33.30;;;;;;6231072;28;20454;-80
2021/09/01 15:23:48;;;;;;;3.25;1.90;;;30.70;33.40;;;;;;6230789;28;20141;-79
2021/09/01 15:26:49;;;;;;;5.55;2.38;;;30.70;33.50;;;;;;6251100;28;20038;-80
2021/09/01 15:29:50;;;;;;;4.20;2.10;;;30.60;33.60;;;;;;6252146;28;20049;-81
2021/09/01 15:32:51;;;;;;;2.35;1.83;;;30.50;33.70;;;;;;6226294;28;20053;-80
2021/09/01 15:35:54;;;;;;;2.45;1.70;;;30.50;33.80;;;;;;6244306;28;20037;-80
2021/09/01 15:38:55;;;;;;;4.25;1.70;;;30.50;33.90;;;;;;6242380;28;20113;-79
2021/09/01 15:42:02;;;;;;;3.17;2.00;;;30.50;34.10;;;;;;6276568;28;20060;-80
2021/09/01 15:45:04;;;;;;;5.65;2.15;;;30.40;34.10;;;;;;6277567;28;20029;-80
2021/09/01 15:48:11;;;;;;;3.72;2.13;;;30.40;34.20;;;;;;6259727;28;20476;-79
2021/09/01 15:51:16;;;;;;;;;;;30.40;34.30;;;;;;6277110;28;20041;-79
2021/09/01 15:54:19;;;;;;;5.10;2.20;;;30.40;34.30;;;;;;6254505;28;19913;-79